sensor_id;sensor_type;location;lat;lon;timestamp;P1;durP1;ratioP1;P2;durP2;ratioP2
11588;SDS011;5850;51.360;12.362;2023-04-30T00:00:41;8.07;;;7.27;;
11588;SDS011;5850;51.360;12.362;2023-04-30T00:03:09;10.57;;;7.20;;
11588;SDS011;5850;51.360;12.362;2023-04-30T00:05:37;9.07;;;7.80;;
11588;SDS011;5850;51.360;12.362;2023-04-30T00:08:06;9.30;;;6.53;;
11588;SDS011;5850;51.360;12.362;2023-04-30T00:10:34;8.97;;;7.03;;
11588;SDS011;5850;51.360;12.362;2023-04-30T00:13:03;8.33;;;6.63;;
11588;SDS011;5850;51.360;12.362;2023-04-30T00:15:31;7.90;;;6.50;;
11588;SDS011;5850;51.360;12.362;2023-04-30T00:17:59;6.93;;;5.60;;
11588;SDS011;5850;51.360;12.362;2023-04-30T00:20:28;7.00;;;5.43;;
11588;SDS011;5850;51.360;12.362;2023-04-30T00:22:56;6.70;;;5.53;;
11588;SDS011;5850;51.360;12.362;2023-04-30T00:25:25;6.30;;;5.63;;
11588;SDS011;5850;51.360;12.362;2023-04-30T00:27:53;6.20;;;5.40;;
11588;SDS011;5850;51.360;12.362;2023-04-30T00:30:22;6.63;;;5.37;;
11588;SDS011;5850;51.360;12.362;2023-04-30T00:32:50;6.30;;;4.80;;
11588;SDS011;5850;51.360;12.362;2023-04-30T00:35:19;6.63;;;5.40;;
11588;SDS011;5850;51.360;12.362;2023-04-30T00:37:47;5.57;;;4.30;;
11588;SDS011;5850;51.360;12.362;2023-04-30T00:40:16;11.03;;;5.13;;
11588;SDS011;5850;51.360;12.362;2023-04-30T00:42:44;6.87;;;4.87;;
11588;SDS011;5850;51.360;12.362;2023-04-30T00:45:13;7.07;;;4.00;;
11588;SDS011;5850;51.360;12.362;2023-04-30T00:47:47;5.40;;;4.17;;
11588;SDS011;5850;51.360;12.362;2023-04-30T00:50:15;6.40;;;4.20;;
11588;SDS011;5850;51.360;12.362;2023-04-30T00:52:44;6.87;;;3.93;;
11588;SDS011;5850;51.360;12.362;2023-04-30T00:55:12;6.87;;;4.33;;
11588;SDS011;5850;51.360;12.362;2023-04-30T00:57:41;4.63;;;3.90;;
11588;SDS011;5850;51.360;12.362;2023-04-30T01:00:09;4.00;;;3.40;;
11588;SDS011;5850;51.360;12.362;2023-04-30T01:02:39;7.80;;;3.87;;
11588;SDS011;5850;51.360;12.362;2023-04-30T01:05:07;4.50;;;3.30;;
11588;SDS011;5850;51.360;12.362;2023-04-30T01:07:36;8.27;;;3.70;;
11588;SDS011;5850;51.360;12.362;2023-04-30T01:10:13;6.27;;;3.60;;
11588;SDS011;5850;51.360;12.362;2023-04-30T01:18:23;4.63;;;3.40;;
11588;SDS011;5850;51.360;12.362;2023-04-30T01:21:06;6.40;;;3.80;;
11588;SDS011;5850;51.360;12.362;2023-04-30T01:29:36;3.87;;;3.40;;
11588;SDS011;5850;51.360;12.362;2023-04-30T01:32:11;5.33;;;3.90;;
11588;SDS011;5850;51.360;12.362;2023-04-30T01:34:39;4.30;;;3.90;;
11588;SDS011;5850;51.360;12.362;2023-04-30T01:43:03;5.27;;;3.30;;
11588;SDS011;5850;51.360;12.362;2023-04-30T01:46:07;3.80;;;3.40;;
11588;SDS011;5850;51.360;12.362;2023-04-30T01:49:07;5.63;;;3.57;;
11588;SDS011;5850;51.360;12.362;2023-04-30T01:52:30;4.17;;;3.30;;
11588;SDS011;5850;51.360;12.362;2023-04-30T01:55:07;5.13;;;3.07;;
11588;SDS011;5850;51.360;12.362;2023-04-30T01:57:42;7.80;;;3.70;;
11588;SDS011;5850;51.360;12.362;2023-04-30T02:00:25;7.90;;;3.77;;
11588;SDS011;5850;51.360;12.362;2023-04-30T02:02:56;5.00;;;3.47;;
11588;SDS011;5850;51.360;12.362;2023-04-30T02:05:25;6.47;;;3.70;;
11588;SDS011;5850;51.360;12.362;2023-04-30T02:07:54;4.13;;;3.60;;
11588;SDS011;5850;51.360;12.362;2023-04-30T02:10:23;4.43;;;3.37;;
11588;SDS011;5850;51.360;12.362;2023-04-30T02:12:54;6.33;;;3.90;;
11588;SDS011;5850;51.360;12.362;2023-04-30T02:15:23;7.40;;;3.83;;
11588;SDS011;5850;51.360;12.362;2023-04-30T02:17:51;5.33;;;3.93;;
11588;SDS011;5850;51.360;12.362;2023-04-30T02:20:19;6.83;;;4.27;;
11588;SDS011;5850;51.360;12.362;2023-04-30T02:22:48;4.37;;;3.77;;
11588;SDS011;5850;51.360;12.362;2023-04-30T02:25:17;7.67;;;3.80;;
11588;SDS011;5850;51.360;12.362;2023-04-30T02:27:46;4.43;;;3.50;;
11588;SDS011;5850;51.360;12.362;2023-04-30T02:30:15;5.47;;;3.63;;
11588;SDS011;5850;51.360;12.362;2023-04-30T02:32:45;6.63;;;3.70;;
11588;SDS011;5850;51.360;12.362;2023-04-30T02:35:13;7.07;;;3.67;;
11588;SDS011;5850;51.360;12.362;2023-04-30T02:37:41;7.90;;;4.33;;
11588;SDS011;5850;51.360;12.362;2023-04-30T02:40:10;4.43;;;4.00;;
11588;SDS011;5850;51.360;12.362;2023-04-30T02:42:39;7.33;;;4.23;;
11588;SDS011;5850;51.360;12.362;2023-04-30T02:45:07;7.73;;;4.60;;
11588;SDS011;5850;51.360;12.362;2023-04-30T02:47:36;10.17;;;4.37;;
11588;SDS011;5850;51.360;12.362;2023-04-30T02:50:07;6.00;;;4.10;;
11588;SDS011;5850;51.360;12.362;2023-04-30T02:52:36;5.13;;;4.13;;
11588;SDS011;5850;51.360;12.362;2023-04-30T02:55:05;8.67;;;4.30;;
11588;SDS011;5850;51.360;12.362;2023-04-30T02:57:34;5.77;;;4.20;;
11588;SDS011;5850;51.360;12.362;2023-04-30T03:00:02;8.70;;;5.03;;
11588;SDS011;5850;51.360;12.362;2023-04-30T03:02:32;10.47;;;4.13;;
11588;SDS011;5850;51.360;12.362;2023-04-30T03:05:01;9.77;;;4.13;;
11588;SDS011;5850;51.360;12.362;2023-04-30T03:07:30;5.40;;;3.57;;
11588;SDS011;5850;51.360;12.362;2023-04-30T03:09:58;7.70;;;3.90;;
11588;SDS011;5850;51.360;12.362;2023-04-30T03:12:26;7.67;;;4.00;;
11588;SDS011;5850;51.360;12.362;2023-04-30T03:14:54;8.73;;;4.10;;
11588;SDS011;5850;51.360;12.362;2023-04-30T03:17:22;5.27;;;4.10;;
11588;SDS011;5850;51.360;12.362;2023-04-30T03:19:51;8.30;;;3.87;;
11588;SDS011;5850;51.360;12.362;2023-04-30T03:22:19;7.83;;;4.10;;
11588;SDS011;5850;51.360;12.362;2023-04-30T03:24:50;5.90;;;4.60;;
11588;SDS011;5850;51.360;12.362;2023-04-30T03:27:19;6.03;;;4.10;;
11588;SDS011;5850;51.360;12.362;2023-04-30T03:29:47;5.73;;;4.03;;
11588;SDS011;5850;51.360;12.362;2023-04-30T03:32:17;6.67;;;4.23;;
11588;SDS011;5850;51.360;12.362;2023-04-30T03:34:45;4.53;;;4.07;;
11588;SDS011;5850;51.360;12.362;2023-04-30T03:37:13;6.00;;;4.50;;
11588;SDS011;5850;51.360;12.362;2023-04-30T03:39:41;7.67;;;4.43;;
11588;SDS011;5850;51.360;12.362;2023-04-30T03:42:10;10.23;;;4.77;;
11588;SDS011;5850;51.360;12.362;2023-04-30T03:44:38;5.13;;;4.60;;
11588;SDS011;5850;51.360;12.362;2023-04-30T03:47:07;7.03;;;4.87;;
11588;SDS011;5850;51.360;12.362;2023-04-30T03:49:36;8.30;;;4.77;;
11588;SDS011;5850;51.360;12.362;2023-04-30T03:52:04;6.70;;;4.67;;
11588;SDS011;5850;51.360;12.362;2023-04-30T03:54:33;7.53;;;5.10;;
11588;SDS011;5850;51.360;12.362;2023-04-30T03:57:02;10.60;;;5.33;;
11588;SDS011;5850;51.360;12.362;2023-04-30T03:59:33;7.27;;;4.60;;
11588;SDS011;5850;51.360;12.362;2023-04-30T04:02:01;9.87;;;4.10;;
11588;SDS011;5850;51.360;12.362;2023-04-30T04:04:30;6.70;;;4.30;;
11588;SDS011;5850;51.360;12.362;2023-04-30T04:06:58;9.13;;;4.70;;
11588;SDS011;5850;51.360;12.362;2023-04-30T04:09:28;7.03;;;4.70;;
11588;SDS011;5850;51.360;12.362;2023-04-30T04:11:57;9.57;;;4.50;;
11588;SDS011;5850;51.360;12.362;2023-04-30T04:14:27;6.27;;;4.40;;
11588;SDS011;5850;51.360;12.362;2023-04-30T04:16:56;7.50;;;3.93;;
11588;SDS011;5850;51.360;12.362;2023-04-30T04:19:25;7.27;;;4.80;;
11588;SDS011;5850;51.360;12.362;2023-04-30T04:21:54;6.40;;;4.00;;
11588;SDS011;5850;51.360;12.362;2023-04-30T04:24:25;7.13;;;4.23;;
11588;SDS011;5850;51.360;12.362;2023-04-30T04:26:54;8.23;;;4.67;;
11588;SDS011;5850;51.360;12.362;2023-04-30T04:29:23;8.57;;;4.13;;
11588;SDS011;5850;51.360;12.362;2023-04-30T04:31:52;7.20;;;4.37;;
11588;SDS011;5850;51.360;12.362;2023-04-30T04:34:20;12.10;;;4.57;;
11588;SDS011;5850;51.360;12.362;2023-04-30T04:36:49;7.67;;;4.60;;
11588;SDS011;5850;51.360;12.362;2023-04-30T04:39:18;8.57;;;4.30;;
11588;SDS011;5850;51.360;12.362;2023-04-30T04:41:46;5.27;;;3.83;;
11588;SDS011;5850;51.360;12.362;2023-04-30T04:44:14;7.67;;;4.10;;
11588;SDS011;5850;51.360;12.362;2023-04-30T04:46:43;6.77;;;4.10;;
11588;SDS011;5850;51.360;12.362;2023-04-30T04:49:12;6.47;;;4.10;;
11588;SDS011;5850;51.360;12.362;2023-04-30T04:51:40;5.37;;;3.70;;
11588;SDS011;5850;51.360;12.362;2023-04-30T04:54:09;5.47;;;4.07;;
11588;SDS011;5850;51.360;12.362;2023-04-30T04:56:37;8.07;;;3.97;;
11588;SDS011;5850;51.360;12.362;2023-04-30T04:59:06;6.90;;;4.30;;
11588;SDS011;5850;51.360;12.362;2023-04-30T05:01:34;9.63;;;4.47;;
11588;SDS011;5850;51.360;12.362;2023-04-30T05:04:03;8.97;;;3.57;;
11588;SDS011;5850;51.360;12.362;2023-04-30T05:06:31;4.53;;;3.87;;
11588;SDS011;5850;51.360;12.362;2023-04-30T05:09:00;7.40;;;4.00;;
11588;SDS011;5850;51.360;12.362;2023-04-30T05:11:30;8.27;;;4.40;;
11588;SDS011;5850;51.360;12.362;2023-04-30T05:13:58;8.83;;;3.60;;
11588;SDS011;5850;51.360;12.362;2023-04-30T05:16:26;4.73;;;4.23;;
11588;SDS011;5850;51.360;12.362;2023-04-30T05:18:55;8.13;;;4.03;;
11588;SDS011;5850;51.360;12.362;2023-04-30T05:21:23;9.33;;;4.23;;
11588;SDS011;5850;51.360;12.362;2023-04-30T05:23:54;8.77;;;3.63;;
11588;SDS011;5850;51.360;12.362;2023-04-30T05:26:23;7.67;;;4.57;;
11588;SDS011;5850;51.360;12.362;2023-04-30T05:28:51;8.53;;;3.77;;
11588;SDS011;5850;51.360;12.362;2023-04-30T05:31:19;6.80;;;3.53;;
11588;SDS011;5850;51.360;12.362;2023-04-30T05:33:48;11.03;;;4.20;;
11588;SDS011;5850;51.360;12.362;2023-04-30T05:36:17;7.30;;;3.80;;
11588;SDS011;5850;51.360;12.362;2023-04-30T05:38:45;8.27;;;3.87;;
11588;SDS011;5850;51.360;12.362;2023-04-30T05:41:14;7.63;;;3.93;;
11588;SDS011;5850;51.360;12.362;2023-04-30T05:43:42;13.73;;;3.73;;
11588;SDS011;5850;51.360;12.362;2023-04-30T05:46:11;7.20;;;3.67;;
11588;SDS011;5850;51.360;12.362;2023-04-30T05:48:39;6.07;;;3.60;;
11588;SDS011;5850;51.360;12.362;2023-04-30T05:51:07;5.17;;;3.03;;
11588;SDS011;5850;51.360;12.362;2023-04-30T05:53:36;7.07;;;3.17;;
11588;SDS011;5850;51.360;12.362;2023-04-30T05:56:04;7.63;;;3.20;;
11588;SDS011;5850;51.360;12.362;2023-04-30T05:58:34;8.40;;;2.73;;
11588;SDS011;5850;51.360;12.362;2023-04-30T06:01:02;6.23;;;3.50;;
11588;SDS011;5850;51.360;12.362;2023-04-30T06:03:31;5.93;;;3.23;;
11588;SDS011;5850;51.360;12.362;2023-04-30T06:05:59;6.03;;;3.20;;
11588;SDS011;5850;51.360;12.362;2023-04-30T06:08:28;6.67;;;3.37;;
11588;SDS011;5850;51.360;12.362;2023-04-30T06:10:56;4.87;;;3.13;;
11588;SDS011;5850;51.360;12.362;2023-04-30T06:13:24;6.70;;;3.73;;
11588;SDS011;5850;51.360;12.362;2023-04-30T06:15:53;7.90;;;3.43;;
11588;SDS011;5850;51.360;12.362;2023-04-30T06:18:21;6.57;;;3.23;;
11588;SDS011;5850;51.360;12.362;2023-04-30T06:20:50;6.90;;;3.43;;
11588;SDS011;5850;51.360;12.362;2023-04-30T06:23:18;4.40;;;2.90;;
11588;SDS011;5850;51.360;12.362;2023-04-30T06:25:47;5.20;;;2.90;;
11588;SDS011;5850;51.360;12.362;2023-04-30T06:28:16;10.37;;;3.63;;
11588;SDS011;5850;51.360;12.362;2023-04-30T06:30:44;4.17;;;2.63;;
11588;SDS011;5850;51.360;12.362;2023-04-30T06:33:13;4.83;;;2.77;;
11588;SDS011;5850;51.360;12.362;2023-04-30T06:35:42;4.27;;;2.40;;
11588;SDS011;5850;51.360;12.362;2023-04-30T06:38:11;6.50;;;3.70;;
11588;SDS011;5850;51.360;12.362;2023-04-30T06:40:43;5.20;;;3.20;;
11588;SDS011;5850;51.360;12.362;2023-04-30T06:43:11;6.10;;;3.47;;
11588;SDS011;5850;51.360;12.362;2023-04-30T06:45:39;8.10;;;3.03;;
11588;SDS011;5850;51.360;12.362;2023-04-30T06:48:08;6.77;;;3.00;;
11588;SDS011;5850;51.360;12.362;2023-04-30T06:50:36;5.17;;;2.60;;
11588;SDS011;5850;51.360;12.362;2023-04-30T06:53:10;7.20;;;3.53;;
11588;SDS011;5850;51.360;12.362;2023-04-30T06:55:39;5.33;;;2.97;;
11588;SDS011;5850;51.360;12.362;2023-04-30T06:58:08;8.30;;;3.10;;
11588;SDS011;5850;51.360;12.362;2023-04-30T07:00:37;8.17;;;3.30;;
11588;SDS011;5850;51.360;12.362;2023-04-30T07:03:05;6.10;;;3.03;;
11588;SDS011;5850;51.360;12.362;2023-04-30T07:05:34;5.53;;;2.80;;
11588;SDS011;5850;51.360;12.362;2023-04-30T07:08:03;10.77;;;3.13;;
11588;SDS011;5850;51.360;12.362;2023-04-30T07:10:33;5.27;;;2.97;;
11588;SDS011;5850;51.360;12.362;2023-04-30T07:13:01;6.37;;;3.13;;
11588;SDS011;5850;51.360;12.362;2023-04-30T07:15:30;8.50;;;2.93;;
11588;SDS011;5850;51.360;12.362;2023-04-30T07:17:59;8.43;;;3.03;;
11588;SDS011;5850;51.360;12.362;2023-04-30T07:20:29;5.50;;;3.10;;
11588;SDS011;5850;51.360;12.362;2023-04-30T07:22:57;7.10;;;2.70;;
11588;SDS011;5850;51.360;12.362;2023-04-30T07:25:26;5.70;;;3.13;;
11588;SDS011;5850;51.360;12.362;2023-04-30T07:27:55;6.60;;;3.00;;
11588;SDS011;5850;51.360;12.362;2023-04-30T07:30:23;7.07;;;3.40;;
11588;SDS011;5850;51.360;12.362;2023-04-30T07:32:52;7.83;;;3.40;;
11588;SDS011;5850;51.360;12.362;2023-04-30T07:35:20;5.03;;;3.63;;
11588;SDS011;5850;51.360;12.362;2023-04-30T07:37:49;5.00;;;3.07;;
11588;SDS011;5850;51.360;12.362;2023-04-30T07:40:17;5.43;;;3.30;;
11588;SDS011;5850;51.360;12.362;2023-04-30T07:43:01;3.73;;;2.80;;
11588;SDS011;5850;51.360;12.362;2023-04-30T07:45:30;7.27;;;3.27;;
11588;SDS011;5850;51.360;12.362;2023-04-30T07:47:59;8.07;;;3.27;;
11588;SDS011;5850;51.360;12.362;2023-04-30T07:50:28;7.83;;;3.03;;
11588;SDS011;5850;51.360;12.362;2023-04-30T07:52:59;5.77;;;3.23;;
11588;SDS011;5850;51.360;12.362;2023-04-30T07:55:28;7.97;;;3.80;;
11588;SDS011;5850;51.360;12.362;2023-04-30T07:57:57;6.30;;;3.23;;
11588;SDS011;5850;51.360;12.362;2023-04-30T08:00:27;7.07;;;3.60;;
11588;SDS011;5850;51.360;12.362;2023-04-30T08:02:56;7.90;;;3.00;;
11588;SDS011;5850;51.360;12.362;2023-04-30T08:05:26;8.67;;;3.63;;
11588;SDS011;5850;51.360;12.362;2023-04-30T08:07:54;11.47;;;3.73;;
11588;SDS011;5850;51.360;12.362;2023-04-30T08:10:22;12.37;;;6.40;;
11588;SDS011;5850;51.360;12.362;2023-04-30T08:12:51;8.00;;;3.60;;
11588;SDS011;5850;51.360;12.362;2023-04-30T08:15:20;7.17;;;4.07;;
11588;SDS011;5850;51.360;12.362;2023-04-30T08:17:49;6.20;;;3.03;;
11588;SDS011;5850;51.360;12.362;2023-04-30T08:20:18;7.07;;;2.97;;
11588;SDS011;5850;51.360;12.362;2023-04-30T08:22:48;4.53;;;3.00;;
11588;SDS011;5850;51.360;12.362;2023-04-30T08:25:17;3.73;;;2.33;;
11588;SDS011;5850;51.360;12.362;2023-04-30T08:27:45;8.73;;;2.77;;
11588;SDS011;5850;51.360;12.362;2023-04-30T08:30:14;6.50;;;3.13;;
11588;SDS011;5850;51.360;12.362;2023-04-30T08:32:43;5.70;;;3.13;;
11588;SDS011;5850;51.360;12.362;2023-04-30T08:35:12;3.83;;;2.93;;
11588;SDS011;5850;51.360;12.362;2023-04-30T08:37:42;3.83;;;2.10;;
11588;SDS011;5850;51.360;12.362;2023-04-30T08:40:10;6.43;;;2.70;;
11588;SDS011;5850;51.360;12.362;2023-04-30T08:42:42;7.10;;;3.17;;
11588;SDS011;5850;51.360;12.362;2023-04-30T08:45:15;6.30;;;2.90;;
11588;SDS011;5850;51.360;12.362;2023-04-30T08:47:45;5.13;;;2.57;;
11588;SDS011;5850;51.360;12.362;2023-04-30T08:50:15;5.00;;;2.80;;
11588;SDS011;5850;51.360;12.362;2023-04-30T08:52:44;5.33;;;2.50;;
11588;SDS011;5850;51.360;12.362;2023-04-30T08:55:13;7.43;;;2.50;;
11588;SDS011;5850;51.360;12.362;2023-04-30T08:57:41;5.80;;;2.10;;
11588;SDS011;5850;51.360;12.362;2023-04-30T09:00:10;5.07;;;2.53;;
11588;SDS011;5850;51.360;12.362;2023-04-30T09:02:40;3.90;;;2.70;;
11588;SDS011;5850;51.360;12.362;2023-04-30T09:05:11;5.63;;;2.93;;
11588;SDS011;5850;51.360;12.362;2023-04-30T09:07:42;6.53;;;2.53;;
11588;SDS011;5850;51.360;12.362;2023-04-30T09:10:18;3.87;;;2.50;;
11588;SDS011;5850;51.360;12.362;2023-04-30T09:13:02;4.97;;;2.30;;
11588;SDS011;5850;51.360;12.362;2023-04-30T09:15:38;14.97;;;10.97;;
11588;SDS011;5850;51.360;12.362;2023-04-30T09:18:10;3.00;;;2.73;;
11588;SDS011;5850;51.360;12.362;2023-04-30T09:20:54;6.00;;;3.03;;
11588;SDS011;5850;51.360;12.362;2023-04-30T09:23:26;4.47;;;2.00;;
11588;SDS011;5850;51.360;12.362;2023-04-30T09:25:55;4.63;;;2.67;;
11588;SDS011;5850;51.360;12.362;2023-04-30T09:28:23;5.07;;;2.93;;
11588;SDS011;5850;51.360;12.362;2023-04-30T09:30:57;5.90;;;2.73;;
11588;SDS011;5850;51.360;12.362;2023-04-30T09:33:25;3.83;;;2.70;;
11588;SDS011;5850;51.360;12.362;2023-04-30T09:35:55;7.30;;;3.40;;
11588;SDS011;5850;51.360;12.362;2023-04-30T09:38:28;6.23;;;3.23;;
11588;SDS011;5850;51.360;12.362;2023-04-30T09:40:58;4.57;;;2.80;;
11588;SDS011;5850;51.360;12.362;2023-04-30T09:43:28;4.00;;;2.67;;
11588;SDS011;5850;51.360;12.362;2023-04-30T09:45:57;5.60;;;2.77;;
11588;SDS011;5850;51.360;12.362;2023-04-30T09:48:27;5.60;;;2.50;;
11588;SDS011;5850;51.360;12.362;2023-04-30T09:50:56;6.33;;;2.87;;
11588;SDS011;5850;51.360;12.362;2023-04-30T09:53:25;3.87;;;2.33;;
11588;SDS011;5850;51.360;12.362;2023-04-30T09:55:54;4.30;;;3.10;;
11588;SDS011;5850;51.360;12.362;2023-04-30T09:58:28;7.87;;;3.10;;
11588;SDS011;5850;51.360;12.362;2023-04-30T10:00:58;4.17;;;2.50;;
11588;SDS011;5850;51.360;12.362;2023-04-30T10:03:29;3.37;;;2.33;;
11588;SDS011;5850;51.360;12.362;2023-04-30T10:05:58;2.80;;;2.50;;
11588;SDS011;5850;51.360;12.362;2023-04-30T10:08:39;6.90;;;3.00;;
11588;SDS011;5850;51.360;12.362;2023-04-30T10:11:11;3.97;;;2.67;;
11588;SDS011;5850;51.360;12.362;2023-04-30T10:19:38;6.40;;;3.80;;
11588;SDS011;5850;51.360;12.362;2023-04-30T10:22:13;6.17;;;3.00;;
11588;SDS011;5850;51.360;12.362;2023-04-30T10:24:41;5.77;;;2.70;;
11588;SDS011;5850;51.360;12.362;2023-04-30T10:27:12;4.43;;;2.70;;
11588;SDS011;5850;51.360;12.362;2023-04-30T10:29:41;6.07;;;2.70;;
11588;SDS011;5850;51.360;12.362;2023-04-30T10:32:11;4.43;;;2.33;;
11588;SDS011;5850;51.360;12.362;2023-04-30T10:37:46;7.73;;;2.70;;
11588;SDS011;5850;51.360;12.362;2023-04-30T10:40:27;7.20;;;2.77;;
11588;SDS011;5850;51.360;12.362;2023-04-30T10:42:55;3.40;;;2.53;;
11588;SDS011;5850;51.360;12.362;2023-04-30T10:45:44;4.80;;;2.47;;
11588;SDS011;5850;51.360;12.362;2023-04-30T10:48:13;4.70;;;2.40;;
11588;SDS011;5850;51.360;12.362;2023-04-30T10:50:50;4.07;;;3.10;;
11588;SDS011;5850;51.360;12.362;2023-04-30T10:53:24;5.83;;;3.23;;
11588;SDS011;5850;51.360;12.362;2023-04-30T10:56:01;4.30;;;3.03;;
11588;SDS011;5850;51.360;12.362;2023-04-30T10:58:33;6.60;;;2.90;;
11588;SDS011;5850;51.360;12.362;2023-04-30T11:01:07;5.93;;;2.50;;
11588;SDS011;5850;51.360;12.362;2023-04-30T11:03:41;3.47;;;2.20;;
11588;SDS011;5850;51.360;12.362;2023-04-30T11:09:33;4.23;;;2.77;;
11588;SDS011;5850;51.360;12.362;2023-04-30T11:12:27;4.43;;;2.47;;
11588;SDS011;5850;51.360;12.362;2023-04-30T11:14:59;5.17;;;3.03;;
11588;SDS011;5850;51.360;12.362;2023-04-30T11:17:33;4.37;;;2.87;;
11588;SDS011;5850;51.360;12.362;2023-04-30T11:20:01;6.60;;;2.50;;
11588;SDS011;5850;51.360;12.362;2023-04-30T11:22:30;4.53;;;2.93;;
11588;SDS011;5850;51.360;12.362;2023-04-30T11:25:02;9.47;;;3.40;;
11588;SDS011;5850;51.360;12.362;2023-04-30T11:27:41;6.77;;;3.63;;
11588;SDS011;5850;51.360;12.362;2023-04-30T11:30:11;4.83;;;3.20;;
11588;SDS011;5850;51.360;12.362;2023-04-30T11:32:45;6.87;;;3.43;;
11588;SDS011;5850;51.360;12.362;2023-04-30T11:35:16;7.50;;;3.17;;
11588;SDS011;5850;51.360;12.362;2023-04-30T11:37:45;7.93;;;3.90;;
11588;SDS011;5850;51.360;12.362;2023-04-30T11:40:14;7.53;;;3.33;;
11588;SDS011;5850;51.360;12.362;2023-04-30T11:42:42;7.47;;;3.57;;
11588;SDS011;5850;51.360;12.362;2023-04-30T11:45:15;6.57;;;2.73;;
11588;SDS011;5850;51.360;12.362;2023-04-30T11:47:50;5.17;;;2.80;;
11588;SDS011;5850;51.360;12.362;2023-04-30T11:50:21;6.43;;;3.23;;
11588;SDS011;5850;51.360;12.362;2023-04-30T11:52:55;3.40;;;2.80;;
11588;SDS011;5850;51.360;12.362;2023-04-30T11:55:27;4.63;;;2.70;;
11588;SDS011;5850;51.360;12.362;2023-04-30T11:57:56;8.60;;;3.07;;
11588;SDS011;5850;51.360;12.362;2023-04-30T12:00:26;6.10;;;3.50;;
11588;SDS011;5850;51.360;12.362;2023-04-30T12:02:58;5.30;;;2.77;;
11588;SDS011;5850;51.360;12.362;2023-04-30T12:05:29;6.40;;;2.70;;
11588;SDS011;5850;51.360;12.362;2023-04-30T12:08:04;3.97;;;2.50;;
11588;SDS011;5850;51.360;12.362;2023-04-30T12:10:37;5.97;;;3.10;;
11588;SDS011;5850;51.360;12.362;2023-04-30T12:13:06;3.87;;;2.60;;
11588;SDS011;5850;51.360;12.362;2023-04-30T12:15:34;3.30;;;2.70;;
11588;SDS011;5850;51.360;12.362;2023-04-30T12:18:11;5.00;;;2.93;;
11588;SDS011;5850;51.360;12.362;2023-04-30T12:20:40;7.47;;;3.27;;
11588;SDS011;5850;51.360;12.362;2023-04-30T12:23:09;7.33;;;3.23;;
11588;SDS011;5850;51.360;12.362;2023-04-30T12:25:41;7.53;;;3.00;;
11588;SDS011;5850;51.360;12.362;2023-04-30T12:28:09;7.87;;;2.83;;
11588;SDS011;5850;51.360;12.362;2023-04-30T12:30:38;4.73;;;2.70;;
11588;SDS011;5850;51.360;12.362;2023-04-30T12:33:08;4.53;;;2.43;;
11588;SDS011;5850;51.360;12.362;2023-04-30T12:35:40;4.60;;;2.40;;
11588;SDS011;5850;51.360;12.362;2023-04-30T12:38:10;7.17;;;2.97;;
11588;SDS011;5850;51.360;12.362;2023-04-30T12:40:45;4.30;;;2.40;;
11588;SDS011;5850;51.360;12.362;2023-04-30T12:43:15;6.03;;;2.37;;
11588;SDS011;5850;51.360;12.362;2023-04-30T12:45:48;4.47;;;2.53;;
11588;SDS011;5850;51.360;12.362;2023-04-30T12:48:19;4.27;;;2.20;;
11588;SDS011;5850;51.360;12.362;2023-04-30T12:50:53;4.83;;;2.30;;
11588;SDS011;5850;51.360;12.362;2023-04-30T12:53:23;5.97;;;2.20;;
11588;SDS011;5850;51.360;12.362;2023-04-30T12:58:41;4.07;;;2.00;;
11588;SDS011;5850;51.360;12.362;2023-04-30T13:01:16;5.07;;;2.20;;
11588;SDS011;5850;51.360;12.362;2023-04-30T13:03:47;4.57;;;2.37;;
11588;SDS011;5850;51.360;12.362;2023-04-30T13:06:16;3.93;;;2.60;;
11588;SDS011;5850;51.360;12.362;2023-04-30T13:08:44;4.67;;;2.80;;
11588;SDS011;5850;51.360;12.362;2023-04-30T13:11:23;6.63;;;2.77;;
11588;SDS011;5850;51.360;12.362;2023-04-30T13:13:53;4.03;;;2.23;;
11588;SDS011;5850;51.360;12.362;2023-04-30T13:16:21;6.07;;;2.20;;
11588;SDS011;5850;51.360;12.362;2023-04-30T13:18:51;4.37;;;2.30;;
11588;SDS011;5850;51.360;12.362;2023-04-30T13:21:20;3.43;;;2.40;;
11588;SDS011;5850;51.360;12.362;2023-04-30T13:23:50;5.13;;;2.83;;
11588;SDS011;5850;51.360;12.362;2023-04-30T13:26:21;3.50;;;2.57;;
11588;SDS011;5850;51.360;12.362;2023-04-30T13:28:49;6.57;;;2.57;;
11588;SDS011;5850;51.360;12.362;2023-04-30T13:31:17;5.73;;;2.60;;
11588;SDS011;5850;51.360;12.362;2023-04-30T13:33:46;8.87;;;3.10;;
11588;SDS011;5850;51.360;12.362;2023-04-30T13:36:15;5.47;;;2.93;;
11588;SDS011;5850;51.360;12.362;2023-04-30T13:38:43;3.63;;;2.43;;
11588;SDS011;5850;51.360;12.362;2023-04-30T13:41:12;7.60;;;2.97;;
11588;SDS011;5850;51.360;12.362;2023-04-30T13:43:40;6.50;;;3.30;;
11588;SDS011;5850;51.360;12.362;2023-04-30T13:46:10;5.93;;;2.80;;
11588;SDS011;5850;51.360;12.362;2023-04-30T13:48:38;5.60;;;2.83;;
11588;SDS011;5850;51.360;12.362;2023-04-30T13:51:06;4.60;;;2.40;;
11588;SDS011;5850;51.360;12.362;2023-04-30T13:53:35;4.80;;;2.60;;
11588;SDS011;5850;51.360;12.362;2023-04-30T13:56:03;6.33;;;2.80;;
11588;SDS011;5850;51.360;12.362;2023-04-30T13:58:33;5.20;;;2.57;;
11588;SDS011;5850;51.360;12.362;2023-04-30T14:01:01;3.63;;;2.70;;
11588;SDS011;5850;51.360;12.362;2023-04-30T14:03:30;5.40;;;3.00;;
11588;SDS011;5850;51.360;12.362;2023-04-30T14:05:59;4.77;;;2.63;;
11588;SDS011;5850;51.360;12.362;2023-04-30T14:08:27;8.13;;;2.80;;
11588;SDS011;5850;51.360;12.362;2023-04-30T14:10:59;5.53;;;2.90;;
11588;SDS011;5850;51.360;12.362;2023-04-30T14:13:28;4.57;;;3.03;;
11588;SDS011;5850;51.360;12.362;2023-04-30T14:15:57;4.47;;;2.30;;
11588;SDS011;5850;51.360;12.362;2023-04-30T14:18:26;5.63;;;2.77;;
11588;SDS011;5850;51.360;12.362;2023-04-30T14:20:55;5.37;;;2.90;;
11588;SDS011;5850;51.360;12.362;2023-04-30T14:23:23;6.40;;;2.80;;
11588;SDS011;5850;51.360;12.362;2023-04-30T14:25:54;6.53;;;2.70;;
11588;SDS011;5850;51.360;12.362;2023-04-30T14:28:22;6.83;;;2.90;;
11588;SDS011;5850;51.360;12.362;2023-04-30T14:30:51;4.97;;;2.83;;
11588;SDS011;5850;51.360;12.362;2023-04-30T14:33:20;4.23;;;2.60;;
11588;SDS011;5850;51.360;12.362;2023-04-30T14:35:48;6.10;;;2.63;;
11588;SDS011;5850;51.360;12.362;2023-04-30T14:38:17;4.73;;;2.30;;
11588;SDS011;5850;51.360;12.362;2023-04-30T14:40:45;3.87;;;2.47;;
11588;SDS011;5850;51.360;12.362;2023-04-30T14:43:14;3.93;;;2.30;;
11588;SDS011;5850;51.360;12.362;2023-04-30T14:45:43;5.33;;;3.00;;
11588;SDS011;5850;51.360;12.362;2023-04-30T14:48:11;4.50;;;2.30;;
11588;SDS011;5850;51.360;12.362;2023-04-30T14:50:42;5.73;;;2.77;;
11588;SDS011;5850;51.360;12.362;2023-04-30T14:53:11;8.27;;;3.33;;
11588;SDS011;5850;51.360;12.362;2023-04-30T14:55:40;4.77;;;2.77;;
11588;SDS011;5850;51.360;12.362;2023-04-30T14:58:09;6.90;;;3.10;;
11588;SDS011;5850;51.360;12.362;2023-04-30T15:00:38;4.47;;;2.90;;
11588;SDS011;5850;51.360;12.362;2023-04-30T15:03:07;4.17;;;2.77;;
11588;SDS011;5850;51.360;12.362;2023-04-30T15:05:35;4.87;;;2.43;;
11588;SDS011;5850;51.360;12.362;2023-04-30T15:08:04;5.63;;;2.47;;
11588;SDS011;5850;51.360;12.362;2023-04-30T15:10:33;5.00;;;2.23;;
11588;SDS011;5850;51.360;12.362;2023-04-30T15:13:02;4.93;;;2.50;;
11588;SDS011;5850;51.360;12.362;2023-04-30T15:15:30;3.03;;;1.97;;
11588;SDS011;5850;51.360;12.362;2023-04-30T15:17:59;4.43;;;2.17;;
11588;SDS011;5850;51.360;12.362;2023-04-30T15:20:29;5.23;;;2.10;;
11588;SDS011;5850;51.360;12.362;2023-04-30T15:22:58;2.80;;;2.20;;
11588;SDS011;5850;51.360;12.362;2023-04-30T15:25:26;2.60;;;1.90;;
11588;SDS011;5850;51.360;12.362;2023-04-30T15:27:55;5.20;;;2.17;;
11588;SDS011;5850;51.360;12.362;2023-04-30T15:30:24;3.87;;;2.07;;
11588;SDS011;5850;51.360;12.362;2023-04-30T15:32:53;3.43;;;2.17;;
11588;SDS011;5850;51.360;12.362;2023-04-30T15:35:22;4.13;;;2.23;;
11588;SDS011;5850;51.360;12.362;2023-04-30T15:37:52;4.50;;;2.77;;